Terminal Aerodrome Forecast
Issued by NWS

Home | Current Version | Previous Version | Text Only | Print | Product List | Glossary On
Versions: 1 2 3 4 5 6 7 8 9 10 11 12 13 14 15 16 17 18
000
FTUS44 KLZK 112300
TAFPBF
TAF
KPBF 112329Z 1200/1224 13003KT P6SM SCT250
     FM120900 00000KT 5SM BR SCT250
      TEMPO 1209/1213 2SM BR
     FM121500 17004KT P6SM SCT250
     FM121700 13004KT P6SM SCT035 SCT250=

USA.gov is the U.S. government's official web portal to all federal, state and local government web resources and services.